sensor_id;sensor_type;location;lat;lon;timestamp;P1;durP1;ratioP1;P2;durP2;ratioP2
68300;SDS011;55146;47.468;18.806;2023-12-20T00:01:14;43.33;;;18.42;;
68300;SDS011;55146;47.468;18.806;2023-12-20T00:03:39;44.87;;;21.37;;
68300;SDS011;55146;47.468;18.806;2023-12-20T00:06:05;46.37;;;21.90;;
68300;SDS011;55146;47.468;18.806;2023-12-20T00:08:30;55.00;;;23.87;;
68300;SDS011;55146;47.468;18.806;2023-12-20T00:10:56;48.63;;;20.13;;
68300;SDS011;55146;47.468;18.806;2023-12-20T00:13:21;49.50;;;21.37;;
68300;SDS011;55146;47.468;18.806;2023-12-20T00:15:46;49.20;;;22.07;;
68300;SDS011;55146;47.468;18.806;2023-12-20T00:18:12;46.53;;;19.58;;
68300;SDS011;55146;47.468;18.806;2023-12-20T00:20:37;53.70;;;22.30;;
68300;SDS011;55146;47.468;18.806;2023-12-20T00:23:02;49.67;;;22.97;;
68300;SDS011;55146;47.468;18.806;2023-12-20T00:25:28;54.03;;;23.43;;
68300;SDS011;55146;47.468;18.806;2023-12-20T00:27:53;61.80;;;25.27;;
68300;SDS011;55146;47.468;18.806;2023-12-20T00:30:18;57.00;;;23.02;;
68300;SDS011;55146;47.468;18.806;2023-12-20T00:32:44;58.35;;;24.87;;
68300;SDS011;55146;47.468;18.806;2023-12-20T00:35:11;53.28;;;23.40;;
68300;SDS011;55146;47.468;18.806;2023-12-20T00:37:37;56.70;;;25.40;;
68300;SDS011;55146;47.468;18.806;2023-12-20T00:40:03;50.37;;;21.47;;
68300;SDS011;55146;47.468;18.806;2023-12-20T00:42:28;60.42;;;22.77;;
68300;SDS011;55146;47.468;18.806;2023-12-20T00:44:54;50.07;;;20.93;;
68300;SDS011;55146;47.468;18.806;2023-12-20T00:47:19;61.50;;;23.57;;
68300;SDS011;55146;47.468;18.806;2023-12-20T00:49:44;58.75;;;21.90;;
68300;SDS011;55146;47.468;18.806;2023-12-20T00:52:10;52.23;;;22.60;;
68300;SDS011;55146;47.468;18.806;2023-12-20T00:54:35;55.77;;;21.80;;
68300;SDS011;55146;47.468;18.806;2023-12-20T00:57:01;49.43;;;21.27;;
68300;SDS011;55146;47.468;18.806;2023-12-20T00:59:26;51.27;;;21.27;;
68300;SDS011;55146;47.468;18.806;2023-12-20T01:01:51;47.75;;;20.27;;
68300;SDS011;55146;47.468;18.806;2023-12-20T01:04:16;50.40;;;20.42;;
68300;SDS011;55146;47.468;18.806;2023-12-20T01:06:42;52.47;;;21.90;;
68300;SDS011;55146;47.468;18.806;2023-12-20T01:09:07;50.37;;;21.53;;
68300;SDS011;55146;47.468;18.806;2023-12-20T01:11:33;44.57;;;21.90;;
68300;SDS011;55146;47.468;18.806;2023-12-20T01:13:58;44.93;;;21.60;;
68300;SDS011;55146;47.468;18.806;2023-12-20T01:16:23;46.30;;;21.10;;
68300;SDS011;55146;47.468;18.806;2023-12-20T01:18:49;46.53;;;21.00;;
68300;SDS011;55146;47.468;18.806;2023-12-20T01:21:14;41.70;;;18.83;;
68300;SDS011;55146;47.468;18.806;2023-12-20T01:23:39;47.20;;;20.30;;
68300;SDS011;55146;47.468;18.806;2023-12-20T01:26:05;49.50;;;20.00;;
68300;SDS011;55146;47.468;18.806;2023-12-20T01:28:30;42.13;;;19.60;;
68300;SDS011;55146;47.468;18.806;2023-12-20T01:30:56;47.20;;;21.13;;
68300;SDS011;55146;47.468;18.806;2023-12-20T01:33:22;46.92;;;20.52;;
68300;SDS011;55146;47.468;18.806;2023-12-20T01:35:47;48.93;;;20.43;;
68300;SDS011;55146;47.468;18.806;2023-12-20T01:38:13;51.88;;;21.17;;
68300;SDS011;55146;47.468;18.806;2023-12-20T01:40:38;54.92;;;21.02;;
68300;SDS011;55146;47.468;18.806;2023-12-20T01:43:07;50.93;;;20.60;;
68300;SDS011;55146;47.468;18.806;2023-12-20T01:45:33;46.88;;;18.65;;
68300;SDS011;55146;47.468;18.806;2023-12-20T01:47:59;41.13;;;18.57;;
68300;SDS011;55146;47.468;18.806;2023-12-20T01:50:25;43.03;;;19.17;;
68300;SDS011;55146;47.468;18.806;2023-12-20T01:52:51;50.20;;;19.73;;
68300;SDS011;55146;47.468;18.806;2023-12-20T01:55:20;45.42;;;21.20;;
68300;SDS011;55146;47.468;18.806;2023-12-20T01:57:47;49.78;;;21.00;;
68300;SDS011;55146;47.468;18.806;2023-12-20T02:00:12;42.43;;;18.93;;
68300;SDS011;55146;47.468;18.806;2023-12-20T02:02:39;47.13;;;20.23;;
68300;SDS011;55146;47.468;18.806;2023-12-20T02:05:08;41.63;;;18.23;;
68300;SDS011;55146;47.468;18.806;2023-12-20T02:07:34;46.67;;;20.80;;
68300;SDS011;55146;47.468;18.806;2023-12-20T02:10:00;46.07;;;18.83;;
68300;SDS011;55146;47.468;18.806;2023-12-20T02:12:26;48.53;;;18.95;;
68300;SDS011;55146;47.468;18.806;2023-12-20T02:14:51;50.33;;;20.63;;
68300;SDS011;55146;47.468;18.806;2023-12-20T02:17:18;46.55;;;21.42;;
68300;SDS011;55146;47.468;18.806;2023-12-20T02:19:44;42.37;;;18.20;;
68300;SDS011;55146;47.468;18.806;2023-12-20T02:22:10;45.50;;;21.20;;
68300;SDS011;55146;47.468;18.806;2023-12-20T02:24:36;48.42;;;21.73;;
68300;SDS011;55146;47.468;18.806;2023-12-20T02:27:01;45.60;;;21.60;;
68300;SDS011;55146;47.468;18.806;2023-12-20T02:29:27;45.57;;;19.83;;
68300;SDS011;55146;47.468;18.806;2023-12-20T02:31:52;40.60;;;18.02;;
68300;SDS011;55146;47.468;18.806;2023-12-20T02:34:17;47.93;;;20.27;;
68300;SDS011;55146;47.468;18.806;2023-12-20T02:36:43;66.30;;;21.53;;
68300;SDS011;55146;47.468;18.806;2023-12-20T02:39:08;51.83;;;21.27;;
68300;SDS011;55146;47.468;18.806;2023-12-20T02:41:33;43.50;;;19.87;;
68300;SDS011;55146;47.468;18.806;2023-12-20T02:43:59;49.97;;;20.03;;
68300;SDS011;55146;47.468;18.806;2023-12-20T02:46:24;43.83;;;20.20;;
68300;SDS011;55146;47.468;18.806;2023-12-20T02:48:49;48.87;;;20.58;;
68300;SDS011;55146;47.468;18.806;2023-12-20T02:51:15;40.20;;;18.50;;
68300;SDS011;55146;47.468;18.806;2023-12-20T02:53:40;40.23;;;19.47;;
68300;SDS011;55146;47.468;18.806;2023-12-20T02:56:05;47.57;;;21.90;;
68300;SDS011;55146;47.468;18.806;2023-12-20T02:58:31;48.00;;;20.63;;
68300;SDS011;55146;47.468;18.806;2023-12-20T03:00:56;43.23;;;19.93;;
68300;SDS011;55146;47.468;18.806;2023-12-20T03:03:22;48.53;;;21.23;;
68300;SDS011;55146;47.468;18.806;2023-12-20T03:05:47;49.45;;;21.23;;
68300;SDS011;55146;47.468;18.806;2023-12-20T03:08:12;52.72;;;21.02;;
68300;SDS011;55146;47.468;18.806;2023-12-20T03:10:38;47.87;;;20.53;;
68300;SDS011;55146;47.468;18.806;2023-12-20T03:13:03;47.43;;;20.90;;
68300;SDS011;55146;47.468;18.806;2023-12-20T03:15:29;48.53;;;19.67;;
68300;SDS011;55146;47.468;18.806;2023-12-20T03:17:54;42.70;;;19.00;;
68300;SDS011;55146;47.468;18.806;2023-12-20T03:20:19;49.77;;;21.47;;
68300;SDS011;55146;47.468;18.806;2023-12-20T03:22:45;51.57;;;22.13;;
68300;SDS011;55146;47.468;18.806;2023-12-20T03:25:10;54.37;;;21.70;;
68300;SDS011;55146;47.468;18.806;2023-12-20T03:27:39;53.43;;;22.07;;
68300;SDS011;55146;47.468;18.806;2023-12-20T03:30:04;53.63;;;21.58;;
68300;SDS011;55146;47.468;18.806;2023-12-20T03:32:31;53.78;;;22.92;;
68300;SDS011;55146;47.468;18.806;2023-12-20T03:34:56;51.87;;;21.00;;
68300;SDS011;55146;47.468;18.806;2023-12-20T03:37:21;47.63;;;21.47;;
68300;SDS011;55146;47.468;18.806;2023-12-20T03:39:47;46.42;;;20.62;;
68300;SDS011;55146;47.468;18.806;2023-12-20T03:42:13;49.53;;;20.17;;
68300;SDS011;55146;47.468;18.806;2023-12-20T03:44:38;49.50;;;20.70;;
68300;SDS011;55146;47.468;18.806;2023-12-20T03:47:05;49.30;;;22.73;;
68300;SDS011;55146;47.468;18.806;2023-12-20T03:49:30;46.73;;;22.40;;
68300;SDS011;55146;47.468;18.806;2023-12-20T03:51:56;52.25;;;21.25;;
68300;SDS011;55146;47.468;18.806;2023-12-20T03:54:21;46.05;;;21.40;;
68300;SDS011;55146;47.468;18.806;2023-12-20T03:56:46;49.77;;;21.87;;
68300;SDS011;55146;47.468;18.806;2023-12-20T03:59:12;49.97;;;22.40;;
68300;SDS011;55146;47.468;18.806;2023-12-20T04:01:37;45.77;;;19.90;;
68300;SDS011;55146;47.468;18.806;2023-12-20T04:04:02;48.97;;;21.20;;
68300;SDS011;55146;47.468;18.806;2023-12-20T04:06:28;46.17;;;21.33;;
68300;SDS011;55146;47.468;18.806;2023-12-20T04:08:53;50.33;;;22.67;;
68300;SDS011;55146;47.468;18.806;2023-12-20T04:11:18;55.67;;;23.03;;
68300;SDS011;55146;47.468;18.806;2023-12-20T04:13:44;47.07;;;21.20;;
68300;SDS011;55146;47.468;18.806;2023-12-20T04:16:09;44.13;;;20.67;;
68300;SDS011;55146;47.468;18.806;2023-12-20T04:18:34;48.70;;;21.60;;
68300;SDS011;55146;47.468;18.806;2023-12-20T04:21:00;48.40;;;22.00;;
68300;SDS011;55146;47.468;18.806;2023-12-20T04:23:25;46.83;;;21.30;;
68300;SDS011;55146;47.468;18.806;2023-12-20T04:25:50;68.28;;;19.77;;
68300;SDS011;55146;47.468;18.806;2023-12-20T04:28:16;40.50;;;20.02;;
68300;SDS011;55146;47.468;18.806;2023-12-20T04:30:41;45.60;;;20.37;;
68300;SDS011;55146;47.468;18.806;2023-12-20T04:33:07;45.00;;;21.33;;
68300;SDS011;55146;47.468;18.806;2023-12-20T04:35:32;48.80;;;21.98;;
68300;SDS011;55146;47.468;18.806;2023-12-20T04:37:58;47.13;;;21.53;;
68300;SDS011;55146;47.468;18.806;2023-12-20T04:40:23;46.93;;;20.30;;
68300;SDS011;55146;47.468;18.806;2023-12-20T04:42:48;44.67;;;20.57;;
68300;SDS011;55146;47.468;18.806;2023-12-20T04:45:14;45.70;;;21.93;;
68300;SDS011;55146;47.468;18.806;2023-12-20T04:47:41;48.22;;;22.25;;
68300;SDS011;55146;47.468;18.806;2023-12-20T04:50:07;45.55;;;20.48;;
68300;SDS011;55146;47.468;18.806;2023-12-20T04:52:33;54.33;;;22.50;;
68300;SDS011;55146;47.468;18.806;2023-12-20T04:54:58;49.40;;;22.73;;
68300;SDS011;55146;47.468;18.806;2023-12-20T04:57:24;49.80;;;22.27;;
68300;SDS011;55146;47.468;18.806;2023-12-20T04:59:50;47.50;;;23.20;;
68300;SDS011;55146;47.468;18.806;2023-12-20T05:02:15;52.83;;;23.23;;
68300;SDS011;55146;47.468;18.806;2023-12-20T05:04:40;57.17;;;22.83;;
68300;SDS011;55146;47.468;18.806;2023-12-20T05:07:06;48.55;;;22.83;;
68300;SDS011;55146;47.468;18.806;2023-12-20T05:09:32;46.03;;;22.40;;
68300;SDS011;55146;47.468;18.806;2023-12-20T05:11:57;42.63;;;19.50;;
68300;SDS011;55146;47.468;18.806;2023-12-20T05:14:22;43.17;;;21.20;;
68300;SDS011;55146;47.468;18.806;2023-12-20T05:16:48;48.33;;;23.15;;
68300;SDS011;55146;47.468;18.806;2023-12-20T05:19:13;46.78;;;21.67;;
68300;SDS011;55146;47.468;18.806;2023-12-20T05:21:39;44.60;;;22.43;;
68300;SDS011;55146;47.468;18.806;2023-12-20T05:24:04;51.70;;;24.63;;
68300;SDS011;55146;47.468;18.806;2023-12-20T05:26:30;81.30;;;35.30;;
68300;SDS011;55146;47.468;18.806;2023-12-20T05:28:55;72.93;;;33.53;;
68300;SDS011;55146;47.468;18.806;2023-12-20T05:31:20;150.87;;;60.23;;
68300;SDS011;55146;47.468;18.806;2023-12-20T05:33:46;59.53;;;26.37;;
68300;SDS011;55146;47.468;18.806;2023-12-20T05:36:11;53.03;;;23.40;;
68300;SDS011;55146;47.468;18.806;2023-12-20T05:38:38;49.88;;;22.10;;
68300;SDS011;55146;47.468;18.806;2023-12-20T05:41:04;46.97;;;19.90;;
68300;SDS011;55146;47.468;18.806;2023-12-20T05:43:29;43.78;;;20.95;;
68300;SDS011;55146;47.468;18.806;2023-12-20T05:45:54;51.27;;;21.00;;
68300;SDS011;55146;47.468;18.806;2023-12-20T05:48:20;48.87;;;22.97;;
68300;SDS011;55146;47.468;18.806;2023-12-20T05:50:45;48.67;;;20.20;;
68300;SDS011;55146;47.468;18.806;2023-12-20T05:53:10;51.97;;;19.67;;
68300;SDS011;55146;47.468;18.806;2023-12-20T05:55:36;58.07;;;21.60;;
68300;SDS011;55146;47.468;18.806;2023-12-20T05:58:01;57.73;;;18.70;;
68300;SDS011;55146;47.468;18.806;2023-12-20T06:00:27;43.53;;;19.65;;
68300;SDS011;55146;47.468;18.806;2023-12-20T06:02:52;61.57;;;19.47;;
68300;SDS011;55146;47.468;18.806;2023-12-20T06:05:17;44.30;;;18.47;;
68300;SDS011;55146;47.468;18.806;2023-12-20T06:07:43;46.27;;;19.00;;
68300;SDS011;55146;47.468;18.806;2023-12-20T06:10:09;54.25;;;18.08;;
68300;SDS011;55146;47.468;18.806;2023-12-20T06:12:35;56.87;;;19.47;;
68300;SDS011;55146;47.468;18.806;2023-12-20T06:15:01;55.47;;;18.80;;
68300;SDS011;55146;47.468;18.806;2023-12-20T06:17:27;79.50;;;20.70;;
68300;SDS011;55146;47.468;18.806;2023-12-20T06:19:55;60.47;;;19.87;;
68300;SDS011;55146;47.468;18.806;2023-12-20T06:22:20;41.13;;;19.42;;
68300;SDS011;55146;47.468;18.806;2023-12-20T06:24:46;52.00;;;18.65;;
68300;SDS011;55146;47.468;18.806;2023-12-20T06:27:11;64.93;;;19.57;;
68300;SDS011;55146;47.468;18.806;2023-12-20T06:29:37;40.40;;;18.40;;
68300;SDS011;55146;47.468;18.806;2023-12-20T06:32:02;42.20;;;17.70;;
68300;SDS011;55146;47.468;18.806;2023-12-20T06:34:28;71.65;;;25.52;;
68300;SDS011;55146;47.468;18.806;2023-12-20T06:36:53;45.97;;;20.27;;
68300;SDS011;55146;47.468;18.806;2023-12-20T06:39:18;49.73;;;21.67;;
68300;SDS011;55146;47.468;18.806;2023-12-20T06:41:43;46.47;;;21.93;;
68300;SDS011;55146;47.468;18.806;2023-12-20T06:44:09;47.33;;;20.13;;
68300;SDS011;55146;47.468;18.806;2023-12-20T06:46:34;81.90;;;41.33;;
68300;SDS011;55146;47.468;18.806;2023-12-20T06:49:00;54.83;;;26.48;;
68300;SDS011;55146;47.468;18.806;2023-12-20T06:51:25;53.20;;;22.87;;
68300;SDS011;55146;47.468;18.806;2023-12-20T06:53:53;50.90;;;22.87;;
68300;SDS011;55146;47.468;18.806;2023-12-20T06:56:19;46.80;;;22.08;;
68300;SDS011;55146;47.468;18.806;2023-12-20T06:58:44;66.77;;;33.03;;
68300;SDS011;55146;47.468;18.806;2023-12-20T07:01:11;42.47;;;20.42;;
68300;SDS011;55146;47.468;18.806;2023-12-20T07:03:40;37.15;;;17.85;;
68300;SDS011;55146;47.468;18.806;2023-12-20T07:06:05;44.25;;;19.40;;
68300;SDS011;55146;47.468;18.806;2023-12-20T07:08:31;46.67;;;22.93;;
68300;SDS011;55146;47.468;18.806;2023-12-20T07:10:56;46.25;;;20.50;;
68300;SDS011;55146;47.468;18.806;2023-12-20T07:13:22;40.43;;;18.33;;
68300;SDS011;55146;47.468;18.806;2023-12-20T07:15:47;47.03;;;19.80;;
68300;SDS011;55146;47.468;18.806;2023-12-20T07:18:13;40.97;;;19.27;;
68300;SDS011;55146;47.468;18.806;2023-12-20T07:20:39;36.13;;;16.13;;
68300;SDS011;55146;47.468;18.806;2023-12-20T07:23:04;42.57;;;18.27;;
68300;SDS011;55146;47.468;18.806;2023-12-20T07:25:29;40.90;;;20.00;;
68300;SDS011;55146;47.468;18.806;2023-12-20T07:27:57;41.75;;;18.83;;
68300;SDS011;55146;47.468;18.806;2023-12-20T07:30:23;44.72;;;18.67;;
68300;SDS011;55146;47.468;18.806;2023-12-20T07:32:48;36.33;;;18.17;;
68300;SDS011;55146;47.468;18.806;2023-12-20T07:35:15;36.30;;;16.73;;
68300;SDS011;55146;47.468;18.806;2023-12-20T07:37:40;35.28;;;17.33;;
68300;SDS011;55146;47.468;18.806;2023-12-20T07:40:06;36.23;;;18.20;;
68300;SDS011;55146;47.468;18.806;2023-12-20T07:42:32;42.88;;;18.62;;
68300;SDS011;55146;47.468;18.806;2023-12-20T07:44:57;43.33;;;20.40;;
68300;SDS011;55146;47.468;18.806;2023-12-20T07:47:23;38.25;;;19.65;;
68300;SDS011;55146;47.468;18.806;2023-12-20T07:49:50;42.00;;;19.50;;
68300;SDS011;55146;47.468;18.806;2023-12-20T07:52:16;41.80;;;20.05;;
68300;SDS011;55146;47.468;18.806;2023-12-20T07:54:45;33.20;;;16.83;;
68300;SDS011;55146;47.468;18.806;2023-12-20T07:57:11;46.22;;;16.58;;
68300;SDS011;55146;47.468;18.806;2023-12-20T07:59:37;38.72;;;17.92;;
68300;SDS011;55146;47.468;18.806;2023-12-20T08:02:02;40.38;;;17.30;;
68300;SDS011;55146;47.468;18.806;2023-12-20T08:04:27;31.67;;;15.27;;
68300;SDS011;55146;47.468;18.806;2023-12-20T08:06:53;34.63;;;17.10;;
68300;SDS011;55146;47.468;18.806;2023-12-20T08:09:18;37.87;;;16.67;;
68300;SDS011;55146;47.468;18.806;2023-12-20T08:11:47;34.75;;;17.60;;
68300;SDS011;55146;47.468;18.806;2023-12-20T08:14:13;50.50;;;18.08;;
68300;SDS011;55146;47.468;18.806;2023-12-20T08:16:39;39.45;;;17.20;;
68300;SDS011;55146;47.468;18.806;2023-12-20T08:19:04;41.63;;;17.67;;
68300;SDS011;55146;47.468;18.806;2023-12-20T08:21:30;42.03;;;16.57;;
68300;SDS011;55146;47.468;18.806;2023-12-20T08:23:55;37.17;;;17.10;;
68300;SDS011;55146;47.468;18.806;2023-12-20T08:26:20;31.37;;;15.53;;
68300;SDS011;55146;47.468;18.806;2023-12-20T08:28:47;36.70;;;16.90;;
68300;SDS011;55146;47.468;18.806;2023-12-20T08:31:14;39.23;;;18.50;;
68300;SDS011;55146;47.468;18.806;2023-12-20T08:33:41;44.72;;;21.02;;
68300;SDS011;55146;47.468;18.806;2023-12-20T08:36:06;66.32;;;34.55;;
68300;SDS011;55146;47.468;18.806;2023-12-20T08:38:31;45.07;;;19.37;;
68300;SDS011;55146;47.468;18.806;2023-12-20T08:40:57;36.53;;;16.67;;
68300;SDS011;55146;47.468;18.806;2023-12-20T08:43:22;50.77;;;20.37;;
68300;SDS011;55146;47.468;18.806;2023-12-20T08:45:47;41.00;;;19.80;;
68300;SDS011;55146;47.468;18.806;2023-12-20T08:48:13;44.17;;;21.97;;
68300;SDS011;55146;47.468;18.806;2023-12-20T08:50:38;48.77;;;22.70;;
68300;SDS011;55146;47.468;18.806;2023-12-20T08:53:04;39.40;;;19.02;;
68300;SDS011;55146;47.468;18.806;2023-12-20T08:55:29;37.50;;;18.00;;
68300;SDS011;55146;47.468;18.806;2023-12-20T08:57:56;38.83;;;19.30;;
68300;SDS011;55146;47.468;18.806;2023-12-20T09:00:21;41.27;;;18.73;;
68300;SDS011;55146;47.468;18.806;2023-12-20T09:02:49;47.22;;;21.50;;
68300;SDS011;55146;47.468;18.806;2023-12-20T09:05:14;31.47;;;16.60;;
68300;SDS011;55146;47.468;18.806;2023-12-20T09:07:40;35.70;;;18.10;;
68300;SDS011;55146;47.468;18.806;2023-12-20T09:10:05;35.88;;;17.73;;
68300;SDS011;55146;47.468;18.806;2023-12-20T09:12:31;44.53;;;20.83;;
68300;SDS011;55146;47.468;18.806;2023-12-20T09:14:56;39.73;;;18.60;;
68300;SDS011;55146;47.468;18.806;2023-12-20T09:17:22;38.63;;;17.17;;
68300;SDS011;55146;47.468;18.806;2023-12-20T09:19:50;35.50;;;16.85;;
68300;SDS011;55146;47.468;18.806;2023-12-20T09:22:17;43.22;;;19.58;;
68300;SDS011;55146;47.468;18.806;2023-12-20T09:24:43;44.20;;;20.88;;
68300;SDS011;55146;47.468;18.806;2023-12-20T09:27:08;35.77;;;16.87;;
68300;SDS011;55146;47.468;18.806;2023-12-20T09:29:33;39.77;;;18.50;;
68300;SDS011;55146;47.468;18.806;2023-12-20T09:31:59;42.73;;;20.90;;
68300;SDS011;55146;47.468;18.806;2023-12-20T09:34:24;36.70;;;17.17;;
68300;SDS011;55146;47.468;18.806;2023-12-20T09:36:50;35.50;;;18.05;;
68300;SDS011;55146;47.468;18.806;2023-12-20T09:39:16;38.87;;;18.07;;
68300;SDS011;55146;47.468;18.806;2023-12-20T09:41:46;39.55;;;19.33;;
68300;SDS011;55146;47.468;18.806;2023-12-20T09:44:21;40.95;;;19.52;;
68300;SDS011;55146;47.468;18.806;2023-12-20T09:46:49;46.63;;;23.90;;
68300;SDS011;55146;47.468;18.806;2023-12-20T09:49:16;39.20;;;20.02;;
68300;SDS011;55146;47.468;18.806;2023-12-20T09:51:43;35.97;;;17.77;;
68300;SDS011;55146;47.468;18.806;2023-12-20T09:54:11;37.30;;;18.23;;
68300;SDS011;55146;47.468;18.806;2023-12-20T09:56:39;36.63;;;17.42;;
68300;SDS011;55146;47.468;18.806;2023-12-20T09:59:04;97.10;;;51.87;;
68300;SDS011;55146;47.468;18.806;2023-12-20T10:01:29;48.70;;;22.00;;
68300;SDS011;55146;47.468;18.806;2023-12-20T10:03:56;36.45;;;18.50;;
68300;SDS011;55146;47.468;18.806;2023-12-20T10:06:23;37.08;;;18.65;;
68300;SDS011;55146;47.468;18.806;2023-12-20T10:08:49;35.50;;;17.83;;
68300;SDS011;55146;47.468;18.806;2023-12-20T10:11:14;50.30;;;19.07;;
68300;SDS011;55146;47.468;18.806;2023-12-20T10:13:40;41.63;;;18.77;;
68300;SDS011;55146;47.468;18.806;2023-12-20T10:16:06;36.03;;;17.90;;
68300;SDS011;55146;47.468;18.806;2023-12-20T10:18:32;46.88;;;18.45;;
68300;SDS011;55146;47.468;18.806;2023-12-20T10:20:58;38.50;;;19.17;;
68300;SDS011;55146;47.468;18.806;2023-12-20T10:23:23;38.88;;;18.87;;
68300;SDS011;55146;47.468;18.806;2023-12-20T10:25:56;41.17;;;19.17;;
68300;SDS011;55146;47.468;18.806;2023-12-20T10:28:23;41.22;;;18.40;;
68300;SDS011;55146;47.468;18.806;2023-12-20T10:30:52;44.20;;;19.73;;
68300;SDS011;55146;47.468;18.806;2023-12-20T10:33:25;49.75;;;18.12;;
68300;SDS011;55146;47.468;18.806;2023-12-20T10:35:54;46.97;;;23.43;;
68300;SDS011;55146;47.468;18.806;2023-12-20T10:38:20;37.67;;;18.25;;
68300;SDS011;55146;47.468;18.806;2023-12-20T10:40:47;37.78;;;19.12;;
68300;SDS011;55146;47.468;18.806;2023-12-20T10:43:12;38.95;;;17.62;;
68300;SDS011;55146;47.468;18.806;2023-12-20T10:45:40;42.97;;;19.37;;
68300;SDS011;55146;47.468;18.806;2023-12-20T10:48:07;39.90;;;21.50;;
68300;SDS011;55146;47.468;18.806;2023-12-20T10:50:35;57.72;;;32.65;;
68300;SDS011;55146;47.468;18.806;2023-12-20T10:53:03;56.67;;;33.00;;
68300;SDS011;55146;47.468;18.806;2023-12-20T10:55:29;58.13;;;35.27;;
68300;SDS011;55146;47.468;18.806;2023-12-20T10:57:54;52.23;;;31.67;;
68300;SDS011;55146;47.468;18.806;2023-12-20T11:00:26;53.58;;;32.03;;
68300;SDS011;55146;47.468;18.806;2023-12-20T11:02:53;53.70;;;31.00;;
68300;SDS011;55146;47.468;18.806;2023-12-20T11:07:54;53.80;;;32.38;;
68300;SDS011;55146;47.468;18.806;2023-12-20T11:10:34;42.80;;;24.80;;
68300;SDS011;55146;47.468;18.806;2023-12-20T11:13:20;47.80;;;26.08;;
68300;SDS011;55146;47.468;18.806;2023-12-20T11:15:51;41.00;;;22.92;;
68300;SDS011;55146;47.468;18.806;2023-12-20T11:18:17;48.30;;;29.33;;
68300;SDS011;55146;47.468;18.806;2023-12-20T11:20:43;49.97;;;32.67;;
68300;SDS011;55146;47.468;18.806;2023-12-20T11:23:08;44.77;;;29.90;;
68300;SDS011;55146;47.468;18.806;2023-12-20T11:25:48;72.62;;;44.47;;
68300;SDS011;55146;47.468;18.806;2023-12-20T11:28:16;49.05;;;30.98;;
68300;SDS011;55146;47.468;18.806;2023-12-20T11:30:47;36.97;;;24.90;;
68300;SDS011;55146;47.468;18.806;2023-12-20T11:33:15;35.40;;;20.47;;
68300;SDS011;55146;47.468;18.806;2023-12-20T11:35:41;36.55;;;20.40;;
68300;SDS011;55146;47.468;18.806;2023-12-20T11:38:09;30.33;;;18.50;;
68300;SDS011;55146;47.468;18.806;2023-12-20T11:40:35;35.22;;;19.25;;
68300;SDS011;55146;47.468;18.806;2023-12-20T11:43:01;34.83;;;19.12;;
68300;SDS011;55146;47.468;18.806;2023-12-20T11:45:27;32.75;;;19.48;;
68300;SDS011;55146;47.468;18.806;2023-12-20T11:47:52;39.77;;;24.07;;
68300;SDS011;55146;47.468;18.806;2023-12-20T11:50:22;40.03;;;23.30;;
68300;SDS011;55146;47.468;18.806;2023-12-20T11:52:48;37.63;;;20.70;;
68300;SDS011;55146;47.468;18.806;2023-12-20T11:55:15;35.60;;;21.03;;
68300;SDS011;55146;47.468;18.806;2023-12-20T11:57:41;38.45;;;22.60;;
68300;SDS011;55146;47.468;18.806;2023-12-20T12:00:07;34.22;;;20.90;;
68300;SDS011;55146;47.468;18.806;2023-12-20T12:02:33;34.65;;;22.33;;
68300;SDS011;55146;47.468;18.806;2023-12-20T12:04:59;46.03;;;28.60;;
68300;SDS011;55146;47.468;18.806;2023-12-20T12:07:25;45.33;;;26.40;;
68300;SDS011;55146;47.468;18.806;2023-12-20T12:09:50;26.30;;;15.87;;
68300;SDS011;55146;47.468;18.806;2023-12-20T12:12:16;25.43;;;15.40;;
68300;SDS011;55146;47.468;18.806;2023-12-20T12:14:44;21.65;;;13.85;;
68300;SDS011;55146;47.468;18.806;2023-12-20T12:17:10;20.40;;;12.85;;
68300;SDS011;55146;47.468;18.806;2023-12-20T12:19:36;17.37;;;10.32;;
68300;SDS011;55146;47.468;18.806;2023-12-20T12:22:05;18.40;;;11.13;;
68300;SDS011;55146;47.468;18.806;2023-12-20T12:24:33;14.52;;;8.57;;
68300;SDS011;55146;47.468;18.806;2023-12-20T12:26:59;17.20;;;11.73;;
68300;SDS011;55146;47.468;18.806;2023-12-20T12:29:24;15.40;;;8.50;;
68300;SDS011;55146;47.468;18.806;2023-12-20T12:31:49;16.93;;;9.83;;
68300;SDS011;55146;47.468;18.806;2023-12-20T12:34:15;15.27;;;8.88;;
68300;SDS011;55146;47.468;18.806;2023-12-20T12:36:41;14.70;;;8.70;;
68300;SDS011;55146;47.468;18.806;2023-12-20T12:39:06;12.07;;;7.27;;
68300;SDS011;55146;47.468;18.806;2023-12-20T12:41:32;12.43;;;8.00;;
68300;SDS011;55146;47.468;18.806;2023-12-20T12:43:57;14.60;;;8.40;;
68300;SDS011;55146;47.468;18.806;2023-12-20T12:46:22;13.83;;;8.17;;
68300;SDS011;55146;47.468;18.806;2023-12-20T12:48:48;15.40;;;8.93;;
68300;SDS011;55146;47.468;18.806;2023-12-20T12:51:15;15.77;;;8.23;;
68300;SDS011;55146;47.468;18.806;2023-12-20T12:53:41;14.90;;;8.77;;
68300;SDS011;55146;47.468;18.806;2023-12-20T12:56:06;16.10;;;9.83;;
68300;SDS011;55146;47.468;18.806;2023-12-20T12:58:32;16.20;;;8.93;;
68300;SDS011;55146;47.468;18.806;2023-12-20T13:00:58;18.17;;;9.80;;
68300;SDS011;55146;47.468;18.806;2023-12-20T13:03:24;18.47;;;9.77;;
68300;SDS011;55146;47.468;18.806;2023-12-20T13:05:49;17.90;;;10.60;;
68300;SDS011;55146;47.468;18.806;2023-12-20T13:08:15;19.40;;;9.80;;
68300;SDS011;55146;47.468;18.806;2023-12-20T13:10:41;18.15;;;9.95;;
68300;SDS011;55146;47.468;18.806;2023-12-20T13:13:06;17.93;;;10.37;;
68300;SDS011;55146;47.468;18.806;2023-12-20T13:15:32;17.90;;;10.95;;
68300;SDS011;55146;47.468;18.806;2023-12-20T13:17:57;17.93;;;10.13;;
68300;SDS011;55146;47.468;18.806;2023-12-20T13:20:22;16.87;;;10.40;;
68300;SDS011;55146;47.468;18.806;2023-12-20T13:22:48;18.27;;;10.87;;
68300;SDS011;55146;47.468;18.806;2023-12-20T13:25:13;19.03;;;11.03;;
68300;SDS011;55146;47.468;18.806;2023-12-20T13:27:38;19.23;;;10.67;;
68300;SDS011;55146;47.468;18.806;2023-12-20T13:30:05;17.05;;;10.15;;
68300;SDS011;55146;47.468;18.806;2023-12-20T13:32:31;18.13;;;10.73;;
68300;SDS011;55146;47.468;18.806;2023-12-20T13:34:56;18.70;;;10.23;;
68300;SDS011;55146;47.468;18.806;2023-12-20T13:37:21;18.55;;;11.12;;
68300;SDS011;55146;47.468;18.806;2023-12-20T13:39:47;18.77;;;11.07;;
68300;SDS011;55146;47.468;18.806;2023-12-20T13:42:12;19.03;;;11.33;;
68300;SDS011;55146;47.468;18.806;2023-12-20T13:44:38;20.35;;;11.12;;
68300;SDS011;55146;47.468;18.806;2023-12-20T13:47:03;20.83;;;11.93;;
68300;SDS011;55146;47.468;18.806;2023-12-20T13:49:29;20.97;;;10.33;;
68300;SDS011;55146;47.468;18.806;2023-12-20T13:51:54;19.53;;;10.57;;
68300;SDS011;55146;47.468;18.806;2023-12-20T13:54:20;17.75;;;10.50;;
68300;SDS011;55146;47.468;18.806;2023-12-20T13:56:47;20.30;;;11.88;;
68300;SDS011;55146;47.468;18.806;2023-12-20T13:59:12;22.20;;;12.17;;
68300;SDS011;55146;47.468;18.806;2023-12-20T14:01:39;21.12;;;13.32;;
68300;SDS011;55146;47.468;18.806;2023-12-20T14:04:04;19.57;;;11.03;;